Time;durP1;ratioP1;P1;durP2;ratioP2;P2;SDS_P1;SDS_P2;PMS_P1;PMS_P2;Temp;Humidity;BMP_temperature;BMP_pressure;BME280_temperature;BME280_humidity;BME280_pressure;Samples;Min_cycle;Max_cycle;Signal;HPM_P1;HPM_P2
2021/03/06 00:00:19;;;;;;;26.10;14.80;;;;;;;0.28;63.42;101159.59;4984737;28;20050;-72
2021/03/06 00:02:45;;;;;;;26.55;14.38;;;;;;;0.23;63.51;101164.00;4984666;28;20050;-71
2021/03/06 00:05:12;;;;;;;31.77;17.48;;;;;;;0.18;63.89;101159.75;4985989;28;20077;-71
2021/03/06 00:07:40;;;;;;;27.42;16.80;;;;;;;0.16;63.92;101171.00;4983757;28;20058;-71
2021/03/06 00:10:10;;;;;;;32.47;16.15;;;;;;;0.15;64.09;101169.31;4985198;28;20096;-70
2021/03/06 00:12:37;;;;;;;31.27;20.05;;;;;;;0.11;64.15;101165.03;4986283;28;20050;-72
2021/03/06 00:15:04;;;;;;;35.83;16.85;;;;;;;0.06;64.31;101165.09;4984813;28;20050;-70
2021/03/06 00:17:31;;;;;;;27.13;15.35;;;;;;;0.04;63.90;101166.88;4984002;28;20422;-70
2021/03/06 00:19:57;;;;;;;31.23;16.40;;;;;;;0.03;63.85;101166.91;4985246;28;20046;-76
2021/03/06 00:22:23;;;;;;;25.40;14.48;;;;;;;-0.02;64.17;101167.81;4985612;28;20047;-72
2021/03/06 00:24:51;;;;;;;37.25;17.92;;;;;;;-0.06;64.21;101171.31;4985371;28;20042;-70
2021/03/06 00:27:17;;;;;;;25.80;15.50;;;;;;;-0.08;64.30;101180.03;4984622;28;20055;-71
2021/03/06 00:29:44;;;;;;;32.83;15.88;;;;;;;-0.05;64.21;101173.06;4987687;28;20098;-71
2021/03/06 00:32:10;;;;;;;32.33;18.80;;;;;;;-0.06;63.95;101180.84;4993944;28;20047;-69
2021/03/06 00:34:36;;;;;;;34.53;19.52;;;;;;;-0.14;64.31;101172.34;4985959;28;20058;-72
2021/03/06 00:37:03;;;;;;;36.67;18.30;;;;;;;-0.18;64.55;101183.63;4984645;28;20050;-70
2021/03/06 00:39:29;;;;;;;42.47;21.35;;;;;;;-0.22;64.81;101178.47;4987266;28;20057;-72
2021/03/06 00:41:57;;;;;;;39.88;24.30;;;;;;;-0.23;64.42;101176.75;4985320;28;20050;-71
2021/03/06 00:44:24;;;;;;;37.78;22.70;;;;;;;-0.23;64.83;101178.50;4986879;28;20630;-70
2021/03/06 00:46:50;;;;;;;36.15;19.85;;;;;;;-0.27;64.98;101175.09;4949723;28;20082;-69
2021/03/06 00:49:18;;;;;;;50.00;25.42;;;;;;;-0.27;65.11;101172.50;4984472;28;20046;-69
2021/03/06 00:51:44;;;;;;;40.67;25.17;;;;;;;-0.30;65.17;101167.31;4986048;28;20053;-71
2021/03/06 00:54:11;;;;;;;42.45;23.58;;;;;;;-0.33;64.98;101169.09;4985634;28;20042;-70
2021/03/06 00:56:37;;;;;;;34.88;21.92;;;;;;;-0.35;65.31;101169.13;4987581;28;20073;-71
2021/03/06 00:59:05;;;;;;;39.47;21.15;;;;;;;-0.32;65.35;101163.91;4989462;28;20491;-68
2021/03/06 01:01:31;;;;;;;59.85;27.27;;;;;;;-0.30;64.99;101164.72;5009938;28;20295;-70
2021/03/06 01:03:58;;;;;;;55.78;24.98;;;;;;;-0.31;65.29;101160.41;5025080;28;20046;-70
2021/03/06 01:06:24;;;;;;;97.13;37.15;;;;;;;-0.33;64.89;101164.75;5008384;28;20050;-71
2021/03/06 01:08:51;;;;;;;73.32;32.53;;;;;;;-0.35;65.08;101168.28;5008409;28;20101;-70
2021/03/06 01:11:17;;;;;;;41.58;23.63;;;;;;;-0.44;65.15;101177.03;5006993;28;20046;-70
2021/03/06 01:13:44;;;;;;;38.08;25.52;;;;;;;-0.47;65.37;101171.88;5008663;28;20073;-72
2021/03/06 01:16:12;;;;;;;46.15;27.63;;;;;;;-0.50;65.61;101169.31;5008467;28;20057;-70
2021/03/06 01:18:38;;;;;;;59.47;30.83;;;;;;;-0.50;65.58;101174.53;5007045;28;20050;-70
2021/03/06 01:21:05;;;;;;;88.03;38.80;;;;;;;-0.54;66.07;101167.63;5021803;28;20048;-70
2021/03/06 01:23:32;;;;;;;63.00;32.50;;;;;;;-0.48;65.90;101164.97;5026032;28;20048;-69
2021/03/06 01:25:58;;;;;;;65.38;27.13;;;;;;;-0.50;65.42;101164.97;5018007;28;20057;-70
2021/03/06 01:28:25;;;;;;;54.47;27.67;;;;;;;-0.47;65.60;101164.06;5010615;28;20093;-71
2021/03/06 01:30:51;;;;;;;65.40;30.77;;;;;;;-0.54;65.79;101173.69;5010918;28;20486;-70
2021/03/06 01:33:18;;;;;;;48.38;26.33;;;;;;;-0.51;66.02;101172.78;5011424;28;20045;-70
2021/03/06 01:35:45;;;;;;;55.30;28.77;;;;;;;-0.51;65.72;101175.38;5010485;28;20072;-70
2021/03/06 01:38:11;;;;;;;48.15;27.25;;;;;;;-0.54;65.92;101176.28;5008448;28;20054;-72
2021/03/06 01:40:38;;;;;;;46.60;27.02;;;;;;;-0.56;65.62;101175.41;5010647;28;20160;-69
2021/03/06 01:43:06;;;;;;;46.70;25.23;;;;;;;-0.62;65.95;101176.34;5012547;28;20103;-69
2021/03/06 01:45:33;;;;;;;41.70;26.80;;;;;;;-0.64;65.88;101170.31;5018395;28;20061;-69
2021/03/06 01:48:00;;;;;;;39.05;22.88;;;;;;;-0.61;65.65;101170.31;5016917;28;20062;-68
2021/03/06 01:50:31;;;;;;;40.60;25.27;;;;;;;-0.59;65.71;101176.31;5017540;28;20052;-68
2021/03/06 01:52:57;;;;;;;55.75;27.25;;;;;;;-0.63;65.57;101173.78;5016755;28;20046;-69
2021/03/06 01:55:27;;;;;;;39.40;23.42;;;;;;;-0.62;65.44;101176.34;5012870;28;20675;-69
2021/03/06 01:57:54;;;;;;;33.95;21.67;;;;;;;-0.66;65.65;101173.81;5009139;28;20254;-69
2021/03/06 02:00:23;;;;;;;37.25;18.77;;;;;;;-0.65;65.41;101171.22;5007406;28;20701;-68
2021/03/06 02:02:50;;;;;;;35.53;17.10;;;;;;;-0.65;65.56;101172.94;5008791;28;20042;-70
2021/03/06 02:05:17;;;;;;;34.67;20.02;;;;;;;-0.68;65.60;101166.06;4990723;28;20117;-70
2021/03/06 02:07:45;;;;;;;30.63;17.85;;;;;;;-0.66;65.31;101172.09;4988540;28;20046;-70
2021/03/06 02:10:15;;;;;;;30.40;17.70;;;;;;;-0.65;65.36;101167.75;5007941;28;20251;-70
2021/03/06 02:12:52;;;;;;;30.85;16.25;;;;;;;-0.65;65.30;101171.22;5008742;28;20046;-70
2021/03/06 02:15:33;;;;;;;45.63;20.33;;;;;;;-0.69;65.14;101164.31;5006050;28;20132;-70
2021/03/06 02:18:05;;;;;;;34.83;17.95;;;;;;;-0.73;65.47;101172.19;5007571;28;20092;-68
2021/03/06 02:20:54;;;;;;;29.88;16.40;;;;;;;-0.71;65.13;101176.47;5006925;28;20046;-68
2021/03/06 02:23:54;;;;;;;32.50;17.63;;;;;;;-0.71;64.99;101176.47;5007661;28;20049;-70
2021/03/06 02:26:41;;;;;;;32.05;18.20;;;;;;;-0.74;65.25;101173.91;5007439;28;20092;-68
2021/03/06 02:29:35;;;;;;;33.80;19.73;;;;;;;-0.79;65.28;101183.50;5006909;28;20049;-69
2021/03/06 02:32:09;;;;;;;31.40;18.05;;;;;;;-0.82;65.38;101178.31;4945681;29;20369;-69
2021/03/06 02:34:38;;;;;;;32.97;18.73;;;;;;;-0.81;65.11;101196.47;4945852;29;20540;-71
2021/03/06 02:37:07;;;;;;;28.95;16.23;;;;;;;-0.83;65.51;101192.16;4944419;29;20095;-72
2021/03/06 02:39:36;;;;;;;31.52;17.55;;;;;;;-0.82;65.20;101193.88;4946731;29;20077;-71
2021/03/06 02:42:05;;;;;;;32.97;17.05;;;;;;;-0.83;65.47;101202.53;4946016;29;20060;-69
2021/03/06 02:44:35;;;;;;;37.65;18.60;;;;;;;-0.84;65.09;101196.50;4946167;29;20083;-73
2021/03/06 02:47:02;;;;;;;31.20;16.20;;;;;;;-0.84;64.95;101206.00;4945736;29;20134;-73
2021/03/06 02:49:28;;;;;;;27.00;15.30;;;;;;;-0.85;64.91;101202.53;4944896;29;20051;-70
2021/03/06 02:51:55;;;;;;;32.90;17.52;;;;;;;-0.86;65.06;101198.25;4945437;29;20512;-69
2021/03/06 02:54:22;;;;;;;28.00;17.27;;;;;;;-0.87;65.08;101198.25;4946121;29;20285;-71
2021/03/06 02:56:48;;;;;;;31.48;16.25;;;;;;;-0.88;65.06;101206.91;4945078;29;20090;-71
2021/03/06 02:59:26;;;;;;;38.47;20.15;;;;;;;-0.86;64.89;101207.78;4944939;29;20058;-70
2021/03/06 03:01:59;;;;;;;42.67;21.38;;;;;;;-0.87;64.94;101211.22;4945085;29;20673;-69
2021/03/06 03:04:36;;;;;;;37.53;19.10;;;;;;;-0.88;64.80;101215.56;4944624;29;20055;-69
2021/03/06 03:07:08;;;;;;;39.33;20.20;;;;;;;-0.90;64.98;101217.31;4944264;29;20055;-69
2021/03/06 03:09:39;;;;;;;28.13;17.73;;;;;;;-0.90;64.71;101227.69;4993694;28;20054;-69
2021/03/06 03:12:12;;;;;;;32.60;16.58;;;;;;;-1.00;65.21;101223.44;5007966;28;20695;-69
2021/03/06 03:14:47;;;;;;;35.05;15.75;;;;;;;-1.02;65.10;101228.66;5008027;28;20046;-70
2021/03/06 03:17:18;;;;;;;30.23;15.35;;;;;;;-1.03;65.22;101229.50;5005567;28;20664;-68
2021/03/06 03:19:55;;;;;;;26.25;13.73;;;;;;;-1.04;65.13;101226.94;5006825;28;20042;-69
2021/03/06 03:22:24;;;;;;;32.55;17.35;;;;;;;-1.07;65.46;101224.38;5008024;28;20046;-70
2021/03/06 03:24:53;;;;;;;26.00;14.02;;;;;;;-1.07;65.31;101226.97;5005975;28;20153;-70
2021/03/06 03:27:22;;;;;;;26.58;14.13;;;;;;;-1.08;65.44;101230.41;5005303;28;20652;-69
2021/03/06 03:29:50;;;;;;;26.45;14.20;;;;;;;-1.12;65.36;101236.50;5005616;28;20053;-70
2021/03/06 03:32:18;;;;;;;24.63;12.15;;;;;;;-1.14;65.24;101239.13;5005145;28;20050;-71
2021/03/06 03:34:45;;;;;;;21.00;10.38;;;;;;;-1.16;65.30;101235.69;5007321;28;20049;-72
2021/03/06 03:37:13;;;;;;;25.75;11.32;;;;;;;-1.12;65.26;101246.88;5005386;28;20053;-70
2021/03/06 03:39:39;;;;;;;21.35;12.25;;;;;;;-1.10;65.23;101245.13;5005991;28;20046;-70
2021/03/06 03:42:07;;;;;;;21.63;11.57;;;;;;;-1.20;65.24;101247.81;5005820;28;20046;-70
2021/03/06 03:44:35;;;;;;;22.58;9.82;;;;;;;-1.21;65.04;101246.06;5006441;28;20071;-69
2021/03/06 03:47:02;;;;;;;23.35;11.15;;;;;;;-1.22;65.11;101251.28;5005320;28;20045;-70
2021/03/06 03:49:28;;;;;;;26.10;12.70;;;;;;;-1.24;65.19;101256.50;5005571;28;20041;-68
2021/03/06 03:51:55;;;;;;;23.15;11.43;;;;;;;-1.23;65.43;101254.75;5006373;28;20630;-69
2021/03/06 03:54:23;;;;;;;20.92;11.02;;;;;;;-1.25;65.32;101262.53;5004862;28;20053;-71
2021/03/06 03:56:50;;;;;;;23.15;11.88;;;;;;;-1.25;65.26;101267.72;5005488;28;20076;-69
2021/03/06 03:59:16;;;;;;;18.92;11.93;;;;;;;-1.24;65.41;101265.97;5006591;28;20046;-70
2021/03/06 04:01:45;;;;;;;19.70;10.88;;;;;;;-1.25;65.55;101261.69;5005848;28;20057;-69
2021/03/06 04:04:28;;;;;;;23.52;11.98;;;;;;;-1.24;65.63;101268.56;5005478;28;20056;-71
2021/03/06 04:06:54;;;;;;;26.73;11.25;;;;;;;-1.25;65.45;101267.72;5004321;28;20462;-71
2021/03/06 04:09:21;;;;;;;22.02;13.95;;;;;;;-1.19;65.25;101269.41;4988025;28;20078;-70
2021/03/06 04:11:48;;;;;;;24.73;15.15;;;;;;;-1.17;65.12;101267.66;5005197;28;20701;-69
2021/03/06 04:14:15;;;;;;;21.77;10.80;;;;;;;-1.19;65.15;101270.28;5005465;28;20153;-69
2021/03/06 04:16:42;;;;;;;21.80;10.70;;;;;;;-1.17;65.31;101271.13;5005584;28;20127;-68
2021/03/06 04:19:08;;;;;;;28.15;12.98;;;;;;;-1.18;65.15;101271.13;5005683;28;20072;-69
2021/03/06 04:21:34;;;;;;;25.27;14.40;;;;;;;-1.20;65.31;101272.88;5005448;28;20414;-72
2021/03/06 04:24:01;;;;;;;22.65;14.32;;;;;;;-1.26;65.40;101267.72;5006521;28;20042;-73
2021/03/06 04:26:27;;;;;;;22.60;12.98;;;;;;;-1.29;65.54;101267.75;5006760;28;20057;-71
2021/03/06 04:28:55;;;;;;;24.50;12.50;;;;;;;-1.31;65.50;101269.50;5005417;28;20108;-69
2021/03/06 04:31:21;;;;;;;25.15;14.73;;;;;;;-1.28;65.31;101272.91;5004215;28;20050;-71
2021/03/06 04:33:47;;;;;;;27.80;14.60;;;;;;;-1.27;65.63;101278.97;5005283;28;20038;-68
2021/03/06 04:36:15;;;;;;;25.25;15.10;;;;;;;-1.25;65.58;101282.41;5003950;28;20133;-70
2021/03/06 04:38:41;;;;;;;34.03;15.48;;;;;;;-1.27;65.60;101284.16;5005440;28;20140;-69
2021/03/06 04:41:08;;;;;;;26.88;15.48;;;;;;;-1.29;65.58;101285.91;5009255;28;20419;-69
2021/03/06 04:43:34;;;;;;;32.45;17.02;;;;;;;-1.31;65.39;101280.72;5008622;28;20053;-69
2021/03/06 04:46:02;;;;;;;32.90;16.90;;;;;;;-1.31;65.38;101292.84;5008759;28;20521;-71
2021/03/06 04:48:28;;;;;;;26.45;14.98;;;;;;;-1.32;65.59;101291.97;5009700;28;20081;-69
2021/03/06 04:50:55;;;;;;;24.63;13.48;;;;;;;-1.28;65.58;101287.63;5008331;28;20046;-68
2021/03/06 04:53:21;;;;;;;24.52;12.95;;;;;;;-1.31;65.43;101295.44;5008854;28;20050;-68
2021/03/06 04:55:48;;;;;;;29.25;13.32;;;;;;;-1.35;65.39;101299.78;5009874;28;20065;-69
2021/03/06 04:58:14;;;;;;;24.38;11.38;;;;;;;-1.31;65.23;101295.44;5003277;28;20125;-69
2021/03/06 05:00:41;;;;;;;22.75;14.63;;;;;;;-1.36;65.40;101296.31;4999870;28;20049;-69
2021/03/06 05:03:08;;;;;;;26.48;16.17;;;;;;;-1.36;65.55;101291.13;5008125;28;20494;-69
2021/03/06 05:05:34;;;;;;;26.73;15.43;;;;;;;-1.30;65.53;101300.56;4996685;28;20164;-70
2021/03/06 05:08:01;;;;;;;28.67;16.20;;;;;;;-1.41;65.59;101295.47;4987041;28;20046;-71
2021/03/06 05:10:27;;;;;;;22.77;14.70;;;;;;;-1.30;65.40;101302.31;4989251;28;20042;-68
2021/03/06 05:12:53;;;;;;;25.88;15.85;;;;;;;-1.32;65.44;101296.28;4988867;28;20062;-70
2021/03/06 05:15:20;;;;;;;23.23;12.98;;;;;;;-1.35;65.50;101297.19;4988361;28;20046;-70
2021/03/06 05:17:46;;;;;;;25.90;9.85;;;;;;;-1.34;65.39;101298.88;4987607;28;20050;-72
2021/03/06 05:20:14;;;;;;;25.02;11.73;;;;;;;-1.29;65.35;101291.09;4998371;28;20046;-70
2021/03/06 05:22:40;;;;;;;20.90;10.88;;;;;;;-1.31;65.25;101298.03;5007527;28;20110;-69
2021/03/06 05:25:08;;;;;;;26.52;12.45;;;;;;;-1.31;65.58;101304.06;5008190;28;20046;-67
2021/03/06 05:27:35;;;;;;;28.13;13.40;;;;;;;-1.31;65.37;101298.03;4973053;28;20049;-71
2021/03/06 05:30:02;;;;;;;27.50;15.45;;;;;;;-1.34;65.55;101296.28;5007765;28;20054;-69
2021/03/06 05:32:28;;;;;;;28.15;13.18;;;;;;;-1.32;65.49;101297.13;5006711;28;20445;-70
2021/03/06 05:34:54;;;;;;;19.92;10.57;;;;;;;-1.29;65.55;101296.28;5006950;28;20549;-70
2021/03/06 05:37:22;;;;;;;27.30;13.60;;;;;;;-1.27;65.48;101299.72;5004873;28;20046;-69
2021/03/06 05:39:48;;;;;;;25.08;12.82;;;;;;;-1.26;65.40;101294.53;5006530;28;20056;-70
2021/03/06 05:42:15;;;;;;;25.65;12.48;;;;;;;-1.25;65.35;101301.41;5008293;28;20053;-70
2021/03/06 05:44:42;;;;;;;19.95;11.25;;;;;;;-1.20;65.06;101298.81;5008163;28;20052;-68
2021/03/06 05:47:09;;;;;;;23.10;12.60;;;;;;;-1.20;65.03;101298.81;5010001;28;20049;-74
2021/03/06 05:49:36;;;;;;;17.80;10.00;;;;;;;-1.16;65.23;101303.09;4994138;28;20061;-75
2021/03/06 05:52:04;;;;;;;28.73;14.98;;;;;;;-1.14;65.00;101311.72;4956412;28;20046;-76
2021/03/06 05:54:35;;;;;;;29.83;12.70;;;;;;;-1.10;64.84;101312.53;4991262;28;20594;-74
2021/03/06 05:57:05;;;;;;;16.38;10.57;;;;;;;-1.05;65.02;101311.63;4990354;28;20054;-75
2021/03/06 05:59:32;;;;;;;28.77;17.02;;;;;;;-1.04;64.71;101315.97;4972999;28;20052;-79
2021/03/06 06:01:59;;;;;;;31.17;16.35;;;;;;;-1.02;64.61;101316.81;4991077;28;20639;-75
2021/03/06 06:04:28;;;;;;;38.45;18.95;;;;;;;-0.99;64.54;101314.19;4989476;28;20065;-75
2021/03/06 06:07:00;;;;;;;38.00;17.90;;;;;;;-0.93;64.52;101318.47;4989526;28;20099;-77
2021/03/06 06:09:30;;;;;;;29.35;16.20;;;;;;;-0.84;64.60;101320.13;4992263;28;20046;-75
2021/03/06 06:11:58;;;;;;;26.08;12.38;;;;;;;-0.78;64.46;101320.06;4988623;28;20046;-73
2021/03/06 06:14:25;;;;;;;19.77;11.02;;;;;;;-0.72;64.25;101325.22;4987401;28;20050;-76
2021/03/06 06:17:01;;;;;;;20.90;12.82;;;;;;;-0.65;64.18;101332.09;4991069;28;20054;-79
2021/03/06 06:19:27;;;;;;;28.88;15.98;;;;;;;-0.60;63.99;101330.28;4991427;28;20058;-76
2021/03/06 06:21:54;;;;;;;23.58;11.80;;;;;;;-0.53;63.73;101338.03;4995331;28;20505;-78
2021/03/06 06:24:23;;;;;;;25.33;13.20;;;;;;;-0.46;63.91;101342.28;5003857;28;20050;-81
2021/03/06 06:26:55;;;;;;;26.23;12.73;;;;;;;-0.40;63.64;101340.50;5004844;28;20062;-76
2021/03/06 06:29:47;;;;;;;27.42;14.73;;;;;;;-0.36;63.67;101343.03;4989451;28;20414;-82
2021/03/06 06:32:23;;;;;;;27.77;12.05;;;;;;;-0.30;63.19;101343.00;4967450;28;20051;-73
2021/03/06 06:35:01;;;;;;;26.50;13.32;;;;;;;-0.19;63.36;101346.34;4958067;29;20062;-73
2021/03/06 06:37:29;;;;;;;18.70;11.60;;;;;;;-0.14;63.12;101343.72;4974119;29;20050;-71
2021/03/06 06:39:56;;;;;;;25.00;14.38;;;;;;;-0.04;62.66;101345.31;4975989;29;20047;-72
2021/03/06 06:42:30;;;;;;;21.63;14.77;;;;;;;-0.01;62.55;101347.88;4976030;28;20102;-74
2021/03/06 06:44:59;;;;;;;30.50;17.27;;;;;;;0.03;62.58;101349.56;4962316;28;20043;-74
2021/03/06 06:47:35;;;;;;;24.63;13.50;;;;;;;0.13;62.70;101353.78;4962166;29;20056;-71
2021/03/06 06:50:02;;;;;;;29.95;11.82;;;;;;;0.26;62.07;101348.44;4955050;29;20051;-74
2021/03/06 06:52:38;;;;;;;24.52;13.80;;;;;;;0.37;62.18;101351.75;4950305;29;20102;-72
2021/03/06 06:55:12;;;;;;;28.67;16.40;;;;;;;0.45;61.76;101354.25;4950062;29;20119;-80
2021/03/06 06:57:50;;;;;;;29.60;19.13;;;;;;;0.53;61.85;101352.44;4963842;29;20098;-80
2021/03/06 07:00:22;;;;;;;24.67;13.80;;;;;;;0.69;61.40;101353.94;4966241;28;20051;-74
2021/03/06 07:02:55;;;;;;;31.98;17.25;;;;;;;0.76;60.94;101352.97;4973245;28;20115;-75
2021/03/06 07:05:33;;;;;;;24.95;15.38;;;;;;;0.79;60.33;101356.41;4949613;28;20568;-74
2021/03/06 07:08:06;;;;;;;23.17;12.63;;;;;;;0.81;60.17;101352.91;4968951;28;20483;-79
2021/03/06 07:10:35;;;;;;;19.05;10.25;;;;;;;0.94;60.40;101349.22;5015384;28;20108;-75
2021/03/06 07:13:08;;;;;;;33.25;12.98;;;;;;;1.09;60.39;101352.50;5013268;28;20114;-75
2021/03/06 07:15:37;;;;;;;28.00;14.52;;;;;;;1.20;59.89;101357.53;4994711;28;20089;-73
2021/03/06 07:18:07;;;;;;;21.85;9.50;;;;;;;1.27;59.77;101362.59;5010698;28;20054;-74
2021/03/06 07:20:39;;;;;;;17.25;8.10;;;;;;;1.39;60.08;101360.66;5008413;28;20065;-73
2021/03/06 07:23:16;;;;;;;20.05;8.63;;;;;;;1.50;59.51;101364.81;5003336;28;20037;-74
2021/03/06 07:25:44;;;;;;;17.42;7.82;;;;;;;1.62;59.53;101357.69;5008823;28;20054;-77
2021/03/06 07:28:12;;;;;;;15.82;9.18;;;;;;;1.71;59.24;101363.59;5010060;28;20061;-72
2021/03/06 07:30:45;;;;;;;18.83;9.27;;;;;;;1.84;59.31;101363.38;4993739;28;20096;-76
2021/03/06 07:33:16;;;;;;;21.83;10.52;;;;;;;1.82;58.21;101362.53;5009467;28;20045;-73
2021/03/06 07:36:01;;;;;;;17.50;10.75;;;;;;;1.83;57.83;101362.50;5009126;28;20763;-77
2021/03/06 07:38:30;;;;;;;16.20;8.40;;;;;;;1.95;57.79;101361.44;4991770;28;20050;-74
2021/03/06 07:41:00;;;;;;;20.00;9.27;;;;;;;2.08;58.05;101362.03;4986637;28;20041;-74
2021/03/06 07:43:29;;;;;;;16.10;7.25;;;;;;;2.23;57.76;101364.38;5005635;28;20056;-75
2021/03/06 07:45:58;;;;;;;14.90;8.15;;;;;;;2.33;57.70;101364.16;5005645;28;20667;-74
2021/03/06 07:48:27;;;;;;;10.60;6.07;;;;;;;2.41;57.34;101362.25;4992346;28;20528;-75
2021/03/06 07:50:54;;;;;;;15.95;5.43;;;;;;;2.51;57.19;101363.78;5002201;28;20065;-77
2021/03/06 07:53:25;;;;;;;15.05;7.47;;;;;;;2.57;56.13;101362.78;5004955;28;20615;-73
2021/03/06 07:55:52;;;;;;;12.55;7.50;;;;;;;2.56;55.55;101368.91;5003997;28;20049;-74
2021/03/06 07:58:20;;;;;;;9.00;5.85;;;;;;;2.62;55.51;101367.00;5007453;28;20045;-74
2021/03/06 08:00:53;;;;;;;12.30;6.43;;;;;;;2.65;54.31;101364.34;5005573;28;20664;-76
2021/03/06 08:03:38;;;;;;;10.45;5.63;;;;;;;2.66;53.73;101365.19;5001916;28;20068;-73
2021/03/06 08:06:24;;;;;;;10.70;5.55;;;;;;;2.69;53.26;101372.97;5002566;28;20085;-76
2021/03/06 08:09:09;;;;;;;11.00;4.00;;;;;;;2.83;53.88;101365.69;5002309;28;20096;-75
2021/03/06 08:11:49;;;;;;;8.73;4.07;;;;;;;3.05;53.43;101367.81;4999309;28;20046;-73
2021/03/06 08:14:39;;;;;;;12.93;4.47;;;;;;;3.19;53.36;101368.34;4995788;28;20075;-74
2021/03/06 08:17:37;;;;;;;9.82;4.35;;;;;;;3.26;53.17;101371.66;5003519;28;20138;-71
2021/03/06 08:20:22;;;;;;;10.18;5.20;;;;;;;3.37;52.67;101371.41;5005648;28;20113;-71
2021/03/06 08:23:18;;;;;;;7.67;4.40;;;;;;;3.42;50.33;101366.91;5004752;28;20052;-72
2021/03/06 08:25:47;;;;;;;9.95;5.88;;;;;;;3.49;50.17;101376.31;5003562;28;20300;-72
2021/03/06 08:28:24;;;;;;;10.10;5.90;;;;;;;3.54;50.28;101382.28;4984368;28;20202;-72
2021/03/06 08:30:51;;;;;;;8.95;3.67;;;;;;;3.67;50.38;101380.19;5004996;28;20041;-73
2021/03/06 08:33:18;;;;;;;11.18;4.60;;;;;;;3.83;50.11;101376.31;5007762;28;20042;-72
2021/03/06 08:35:48;;;;;;;12.27;5.20;;;;;;;3.96;49.73;101382.06;5003940;28;20133;-71
2021/03/06 08:38:30;;;;;;;13.18;5.22;;;;;;;3.96;47.62;101379.47;4987077;28;20053;-78
2021/03/06 08:41:01;;;;;;;11.35;5.80;;;;;;;3.86;46.36;101383.22;5001175;28;20068;-74
2021/03/06 08:43:27;;;;;;;14.88;7.20;;;;;;;3.74;46.44;101381.75;5000591;28;20045;-71
2021/03/06 08:45:54;;;;;;;15.77;7.97;;;;;;;3.80;46.90;101367.69;5002015;28;20057;-71
2021/03/06 08:48:24;;;;;;;10.55;4.07;;;;;;;3.84;44.31;101371.94;5000344;28;20108;-71
2021/03/06 08:50:51;;;;;;;12.57;6.05;;;;;;;3.85;44.74;101376.25;5004487;28;20105;-73
2021/03/06 08:53:18;;;;;;;7.75;4.15;;;;;;;4.03;44.47;101374.91;5001400;28;20056;-75
2021/03/06 08:55:46;;;;;;;6.85;4.25;;;;;;;4.13;43.65;101372.91;5000773;28;20588;-71
2021/03/06 08:58:13;;;;;;;7.55;3.42;;;;;;;4.30;43.63;101372.41;5002634;28;20517;-75
2021/03/06 09:00:41;;;;;;;7.93;2.90;;;;;;;4.37;43.23;101366.13;4991726;28;20056;-75
2021/03/06 09:03:13;;;;;;;4.82;2.80;;;;;;;4.38;41.45;101373.91;5002364;28;20046;-74
2021/03/06 09:05:42;;;;;;;5.93;3.72;;;;;;;4.43;41.11;101365.06;5006645;28;20045;-77
2021/03/06 09:08:10;;;;;;;7.20;3.92;;;;;;;4.35;41.19;101360.91;5005724;28;20689;-74
2021/03/06 09:10:41;;;;;;;7.53;3.72;;;;;;;4.39;41.93;101354.72;5001013;28;20129;-74
2021/03/06 09:13:14;;;;;;;11.30;5.78;;;;;;;4.51;40.75;101345.63;5000391;28;20046;-73
2021/03/06 09:15:48;;;;;;;8.00;4.53;;;;;;;4.61;40.26;101351.47;4999231;28;20046;-72
2021/03/06 09:18:16;;;;;;;7.40;4.57;;;;;;;4.57;39.58;101349.81;5000657;28;20554;-71
2021/03/06 09:20:57;;;;;;;7.60;4.32;;;;;;;4.67;39.97;101356.50;5002188;28;20109;-73
2021/03/06 09:23:30;;;;;;;5.63;4.03;;;;;;;4.53;39.75;101349.06;5012918;28;20057;-72
2021/03/06 09:25:58;;;;;;;10.05;4.82;;;;;;;4.54;39.82;101363.03;5010509;28;20054;-73
2021/03/06 09:28:30;;;;;;;8.50;4.65;;;;;;;4.64;39.64;101351.34;5006973;28;20050;-71
2021/03/06 09:30:58;;;;;;;6.80;3.40;;;;;;;4.99;39.61;101362.53;5007368;28;20073;-71
2021/03/06 09:33:28;;;;;;;8.63;4.70;;;;;;;5.18;39.17;101357.53;5006519;28;20200;-71
2021/03/06 09:36:06;;;;;;;10.50;5.35;;;;;;;4.98;39.06;101353.78;5001219;28;20683;-71
2021/03/06 09:38:45;;;;;;;8.65;5.18;;;;;;;5.22;39.72;101353.94;5002459;28;20053;-71
2021/03/06 09:41:12;;;;;;;8.27;5.78;;;;;;;5.24;39.82;101348.63;4998314;28;20046;-70
2021/03/06 09:43:40;;;;;;;16.15;6.65;;;;;;;5.22;40.25;101347.81;5003690;28;20120;-74
2021/03/06 09:46:19;;;;;;;7.97;5.60;;;;;;;5.28;40.33;101345.03;5002896;28;20110;-70
2021/03/06 09:48:51;;;;;;;8.02;4.95;;;;;;;5.25;40.61;101345.13;5005229;28;20069;-70
2021/03/06 09:51:18;;;;;;;7.20;4.20;;;;;;;5.43;40.92;101336.63;5001391;28;20042;-68
2021/03/06 09:53:55;;;;;;;11.95;5.60;;;;;;;5.77;41.00;101340.72;5003147;28;20599;-71
2021/03/06 09:56:21;;;;;;;14.85;5.88;;;;;;;5.81;40.33;101342.31;5001992;28;20046;-70
2021/03/06 09:58:58;;;;;;;12.85;7.00;;;;;;;5.70;40.45;101336.59;5006060;28;20053;-72
2021/03/06 10:01:28;;;;;;;14.20;5.97;;;;;;;5.42;41.42;101342.78;5001530;28;20054;-72
2021/03/06 10:03:55;;;;;;;11.63;5.43;;;;;;;5.66;41.55;101345.50;4971795;28;20102;-73
2021/03/06 10:06:24;;;;;;;8.60;4.65;;;;;;;6.14;41.16;101342.06;5006454;28;20081;-72
2021/03/06 10:08:55;;;;;;;11.23;5.65;;;;;;;6.47;40.79;101342.56;5006673;28;20366;-74
2021/03/06 10:11:33;;;;;;;9.07;4.10;;;;;;;6.59;40.96;101341.25;5009874;28;20106;-73
2021/03/06 10:14:02;;;;;;;10.80;5.82;;;;;;;6.69;39.82;101344.38;5007895;28;20104;-69
2021/03/06 10:16:50;;;;;;;9.73;6.10;;;;;;;6.82;40.13;101352.63;5009552;28;20338;-71
2021/03/06 10:19:21;;;;;;;12.75;5.95;;;;;;;6.66;40.03;101341.84;5010089;28;20050;-77
2021/03/06 10:22:01;;;;;;;11.55;6.78;;;;;;;6.40;40.72;101337.63;5012729;28;20046;-74
2021/03/06 10:24:30;;;;;;;16.40;5.85;;;;;;;6.59;40.85;101346.50;5014797;28;20663;-76
2021/03/06 10:26:58;;;;;;;8.90;4.63;;;;;;;6.58;39.99;101339.53;5040056;28;20053;-80
2021/03/06 10:29:25;;;;;;;14.68;8.13;;;;;;;6.45;40.87;101343.56;5048124;28;20060;-71
2021/03/06 10:32:00;;;;;;;12.40;5.65;;;;;;;6.45;41.23;101346.19;5032411;28;20129;-70
2021/03/06 10:34:29;;;;;;;14.33;4.83;;;;;;;6.80;41.06;101339.53;5034201;28;20310;-74
2021/03/06 10:37:13;;;;;;;13.02;6.03;;;;;;;7.10;40.91;101334.00;5025476;28;20377;-69
2021/03/06 10:39:59;;;;;;;10.05;6.22;;;;;;;7.02;37.90;101329.06;5025369;28;20049;-77
2021/03/06 10:42:41;;;;;;;12.85;7.60;;;;;;;6.36;39.29;101333.41;5003370;28;20108;-72
2021/03/06 10:45:10;;;;;;;10.27;5.45;;;;;;;5.99;40.84;101340.84;5011991;28;20111;-74
2021/03/06 10:47:47;;;;;;;17.67;9.45;;;;;;;5.80;40.66;101335.38;5032864;28;20064;-75
2021/03/06 10:50:25;;;;;;;15.57;7.55;;;;;;;5.67;41.25;101345.44;5036873;28;20132;-80
2021/03/06 10:52:53;;;;;;;12.85;7.05;;;;;;;5.57;42.08;101338.78;5035779;28;20053;-73
2021/03/06 10:55:36;;;;;;;13.05;7.13;;;;;;;5.64;42.17;101328.97;5034334;28;20045;-74
2021/03/06 10:58:03;;;;;;;10.77;4.93;;;;;;;6.12;40.07;101325.50;5033021;28;20132;-83
2021/03/06 11:00:29;;;;;;;12.75;5.68;;;;;;;6.58;39.71;101328.19;5031813;28;20041;-73
2021/03/06 11:02:57;;;;;;;13.68;5.68;;;;;;;6.75;39.93;101314.38;5035692;28;20049;-72
2021/03/06 11:05:26;;;;;;;11.57;5.78;;;;;;;7.11;40.09;101309.41;5049572;28;20029;-74
2021/03/06 11:07:53;;;;;;;12.85;6.32;;;;;;;7.46;40.08;101312.38;5046828;28;20089;-78
2021/03/06 11:10:22;;;;;;;23.77;9.55;;;;;;;7.45;39.61;101300.13;5050943;28;20037;-75
2021/03/06 11:12:54;;;;;;;12.35;6.55;;;;;;;6.82;36.92;101297.47;5050745;28;20109;-75
2021/03/06 11:15:24;;;;;;;9.98;5.22;;;;;;;6.42;37.91;101312.16;5044545;28;20035;-75
2021/03/06 11:17:54;;;;;;;10.85;3.72;;;;;;;6.61;38.56;101307.94;5038654;28;20232;-77
2021/03/06 11:20:22;;;;;;;7.25;3.92;;;;;;;7.12;38.04;101298.00;4987505;28;20064;-79
2021/03/06 11:22:52;;;;;;;8.25;3.15;;;;;;;7.33;37.93;101298.00;5008723;28;20082;-77
2021/03/06 11:25:40;;;;;;;7.03;2.72;;;;;;;7.85;37.43;101287.91;5014306;28;20057;-80
2021/03/06 11:28:12;;;;;;;5.25;2.53;;;;;;;8.41;35.67;101279.19;5007412;28;20065;-77
2021/03/06 11:31:10;;;;;;;6.50;3.33;;;;;;;8.32;35.49;101276.09;5009544;28;20102;-77